Roosevelt, Washington
Current Conditions -  °F | °C
As of 7:53 PM on Saturday 20 Dec 2014 (Local Time) from KHRI Reporting Station
Light Rain Light Rain  
Wind Chill:   Ceiling: 6500
Heat Index:   Visibility: 10mi
Dew Point:   Wind: 6mph
Humidity: 83%   Direction: 250°WSW
Pressure: 29.6"   Gusts: NA
Location:  45.74°N, 120.21°W
Report Text: KHRI 210353Z AUTO 25005KT 10SM -RA BKN065 BKN090 OVC110 09/06 A2960 RMK AO2 SLP023 P0001 T00890061
Loading
Personal Weather Stations






























Interactive Weather Map New forecast layout! Learn more

10-Day Weather Forecast

Advertisements
Track Severe Weather on mobile